Terminal Aerodrome Forecast
Issued by NWS Wakefield, VA

Current Version | Previous Version | Text Only | Print | Product List | Glossary On
Versions: 1 2 3 4 5 6 7 8 9 10 11 12 13
000
FTUS41 KAKQ 262343
TAFECG
TAF
KECG 262343Z 2700/2724 20012KT P6SM BKN250
     FM270800 25012KT 6SM BR OVC020
     FM271000 36014KT 4SM -RA OVC008=

USA.gov is the U.S. government's official web portal to all federal, state and local government web resources and services.